sensor_id;sensor_type;location;lat;lon;timestamp;temperature;humidity
35395;DHT22;21500;45.308;9.488;2023-01-10T09:28:56;13.90;94.50
35395;DHT22;21500;45.308;9.488;2023-01-10T09:31:27;14.10;94.80
35395;DHT22;21500;45.308;9.488;2023-01-10T09:33:54;14.30;94.20
35395;DHT22;21500;45.308;9.488;2023-01-10T09:36:20;14.30;93.50
35395;DHT22;21500;45.308;9.488;2023-01-10T09:38:49;14.40;93.60
35395;DHT22;21500;45.308;9.488;2023-01-10T09:44:57;14.70;93.50
35395;DHT22;21500;45.308;9.488;2023-01-10T09:47:52;14.80;93.20
35395;DHT22;21500;45.308;9.488;2023-01-10T09:50:30;14.80;93.00
35395;DHT22;21500;45.308;9.488;2023-01-10T09:53:15;15.00;93.00
35395;DHT22;21500;45.308;9.488;2023-01-10T09:55:45;15.10;92.30
35395;DHT22;21500;45.308;9.488;2023-01-10T09:58:15;15.10;92.20
35395;DHT22;21500;45.308;9.488;2023-01-10T10:00:51;15.20;91.70
35395;DHT22;21500;45.308;9.488;2023-01-10T10:03:33;15.30;91.70
35395;DHT22;21500;45.308;9.488;2023-01-10T10:06:03;15.40;91.00
35395;DHT22;21500;45.308;9.488;2023-01-10T10:08:29;15.40;91.10
35395;DHT22;21500;45.308;9.488;2023-01-10T10:13:53;15.80;90.50
35395;DHT22;21500;45.308;9.488;2023-01-10T10:19:33;15.90;90.90
35395;DHT22;21500;45.308;9.488;2023-01-10T10:22:11;16.00;90.20
35395;DHT22;21500;45.308;9.488;2023-01-10T10:33:50;16.30;89.70
35395;DHT22;21500;45.308;9.488;2023-01-10T10:36:23;16.40;89.00
35395;DHT22;21500;45.308;9.488;2023-01-10T10:38:50;16.60;88.20
35395;DHT22;21500;45.308;9.488;2023-01-10T10:41:39;16.80;87.50
35395;DHT22;21500;45.308;9.488;2023-01-10T10:46:48;17.30;86.20
35395;DHT22;21500;45.308;9.488;2023-01-10T10:49:27;19.70;84.90
35395;DHT22;21500;45.308;9.488;2023-01-10T10:51:54;21.00;82.50
35395;DHT22;21500;45.308;9.488;2023-01-10T10:54:20;21.50;79.60
35395;DHT22;21500;45.308;9.488;2023-01-10T10:56:47;21.40;76.70
35395;DHT22;21500;45.308;9.488;2023-01-10T10:59:18;22.00;75.80
35395;DHT22;21500;45.308;9.488;2023-01-10T11:01:45;21.70;74.40
35395;DHT22;21500;45.308;9.488;2023-01-10T11:04:16;21.40;72.40
35395;DHT22;21500;45.308;9.488;2023-01-10T11:06:44;21.30;71.40
35395;DHT22;21500;45.308;9.488;2023-01-10T11:09:16;20.70;70.60
35395;DHT22;21500;45.308;9.488;2023-01-10T11:11:47;20.10;70.70
35395;DHT22;21500;45.308;9.488;2023-01-10T11:14:15;21.10;70.20
35395;DHT22;21500;45.308;9.488;2023-01-10T11:17:30;21.40;69.70
35395;DHT22;21500;45.308;9.488;2023-01-10T11:20:04;22.10;66.90
35395;DHT22;21500;45.308;9.488;2023-01-10T11:22:50;22.70;66.30
35395;DHT22;21500;45.308;9.488;2023-01-10T11:25:20;22.50;65.20
35395;DHT22;21500;45.308;9.488;2023-01-10T11:27:54;21.40;65.30
35395;DHT22;21500;45.308;9.488;2023-01-10T11:30:27;22.40;64.60
35395;DHT22;21500;45.308;9.488;2023-01-10T11:33:01;22.40;65.00
35395;DHT22;21500;45.308;9.488;2023-01-10T11:35:33;21.20;64.10
35395;DHT22;21500;45.308;9.488;2023-01-10T11:38:05;22.60;63.60
35395;DHT22;21500;45.308;9.488;2023-01-10T11:40:33;22.10;63.00
35395;DHT22;21500;45.308;9.488;2023-01-10T11:46:01;23.00;60.80
35395;DHT22;21500;45.308;9.488;2023-01-10T11:48:41;21.90;61.10
35395;DHT22;21500;45.308;9.488;2023-01-10T11:51:37;21.50;62.60
35395;DHT22;21500;45.308;9.488;2023-01-10T11:54:05;21.10;61.90
35395;DHT22;21500;45.308;9.488;2023-01-10T11:56:34;22.10;61.70
35395;DHT22;21500;45.308;9.488;2023-01-10T11:59:08;22.10;61.80
35395;DHT22;21500;45.308;9.488;2023-01-10T12:01:43;20.60;61.50
35395;DHT22;21500;45.308;9.488;2023-01-10T12:04:16;20.70;62.00
35395;DHT22;21500;45.308;9.488;2023-01-10T12:06:47;21.50;61.10
35395;DHT22;21500;45.308;9.488;2023-01-10T12:09:34;22.00;61.40
35395;DHT22;21500;45.308;9.488;2023-01-10T12:14:47;20.40;59.50
35395;DHT22;21500;45.308;9.488;2023-01-10T12:19:48;21.00;59.20
35395;DHT22;21500;45.308;9.488;2023-01-10T12:22:18;22.10;57.90
35395;DHT22;21500;45.308;9.488;2023-01-10T12:24:47;22.00;58.10
35395;DHT22;21500;45.308;9.488;2023-01-10T12:27:16;21.90;58.90
35395;DHT22;21500;45.308;9.488;2023-01-10T12:29:56;21.50;58.90
35395;DHT22;21500;45.308;9.488;2023-01-10T12:32:27;22.50;58.70
35395;DHT22;21500;45.308;9.488;2023-01-10T12:35:00;23.50;56.80
35395;DHT22;21500;45.308;9.488;2023-01-10T12:37:50;22.30;57.00
35395;DHT22;21500;45.308;9.488;2023-01-10T12:40:45;22.00;57.50
35395;DHT22;21500;45.308;9.488;2023-01-10T12:51:54;22.10;56.50
35395;DHT22;21500;45.308;9.488;2023-01-10T12:54:26;21.90;56.80
35395;DHT22;21500;45.308;9.488;2023-01-10T12:56:56;21.70;56.20
35395;DHT22;21500;45.308;9.488;2023-01-10T13:29:28;23.50;51.20
35395;DHT22;21500;45.308;9.488;2023-01-10T13:36:25;21.80;51.40
35395;DHT22;21500;45.308;9.488;2023-01-10T13:39:42;21.30;52.00
35395;DHT22;21500;45.308;9.488;2023-01-10T13:43:38;21.10;50.00
35395;DHT22;21500;45.308;9.488;2023-01-10T13:51:38;23.10;50.60
35395;DHT22;21500;45.308;9.488;2023-01-10T13:54:25;23.00;50.80
35395;DHT22;21500;45.308;9.488;2023-01-10T13:56:53;22.60;50.80
35395;DHT22;21500;45.308;9.488;2023-01-10T14:02:43;23.70;51.30
35395;DHT22;21500;45.308;9.488;2023-01-10T14:08:34;23.60;52.60
35395;DHT22;21500;45.308;9.488;2023-01-10T14:11:10;24.50;52.00
35395;DHT22;21500;45.308;9.488;2023-01-10T14:13:37;24.10;51.30
35395;DHT22;21500;45.308;9.488;2023-01-10T14:16:35;23.30;51.30
35395;DHT22;21500;45.308;9.488;2023-01-10T14:19:27;23.80;51.70
35395;DHT22;21500;45.308;9.488;2023-01-10T14:21:58;24.00;50.30
35395;DHT22;21500;45.308;9.488;2023-01-10T14:24:28;23.10;50.50
35395;DHT22;21500;45.308;9.488;2023-01-10T14:27:00;22.40;50.70
35395;DHT22;21500;45.308;9.488;2023-01-10T14:29:31;21.80;52.00
35395;DHT22;21500;45.308;9.488;2023-01-10T14:31:59;21.10;52.20
35395;DHT22;21500;45.308;9.488;2023-01-10T14:34:32;20.80;52.60
35395;DHT22;21500;45.308;9.488;2023-01-10T14:37:08;20.70;52.90
35395;DHT22;21500;45.308;9.488;2023-01-10T14:39:41;20.30;54.00
35395;DHT22;21500;45.308;9.488;2023-01-10T14:42:13;20.10;53.80
35395;DHT22;21500;45.308;9.488;2023-01-10T14:45:02;19.40;53.40
35395;DHT22;21500;45.308;9.488;2023-01-10T14:47:36;19.00;54.00
35395;DHT22;21500;45.308;9.488;2023-01-10T14:50:03;18.80;54.60
35395;DHT22;21500;45.308;9.488;2023-01-10T14:52:31;18.70;54.70
35395;DHT22;21500;45.308;9.488;2023-01-10T14:55:11;18.40;55.50
35395;DHT22;21500;45.308;9.488;2023-01-10T14:57:37;18.40;55.80
35395;DHT22;21500;45.308;9.488;2023-01-10T15:00:14;18.10;55.30
35395;DHT22;21500;45.308;9.488;2023-01-10T15:02:45;17.90;56.10
35395;DHT22;21500;45.308;9.488;2023-01-10T15:05:22;17.70;56.80
35395;DHT22;21500;45.308;9.488;2023-01-10T15:07:53;17.10;56.80
35395;DHT22;21500;45.308;9.488;2023-01-10T15:10:29;17.20;57.20
35395;DHT22;21500;45.308;9.488;2023-01-10T15:12:59;17.50;56.60
35395;DHT22;21500;45.308;9.488;2023-01-10T15:15:34;17.20;55.70
35395;DHT22;21500;45.308;9.488;2023-01-10T15:18:19;16.70;55.90
35395;DHT22;21500;45.308;9.488;2023-01-10T15:20:47;16.10;56.20
35395;DHT22;21500;45.308;9.488;2023-01-10T15:23:14;16.00;56.60
35395;DHT22;21500;45.308;9.488;2023-01-10T15:25:41;15.90;57.50
35395;DHT22;21500;45.308;9.488;2023-01-10T15:28:16;15.80;58.60
35395;DHT22;21500;45.308;9.488;2023-01-10T15:30:42;15.80;58.50
35395;DHT22;21500;45.308;9.488;2023-01-10T15:33:13;15.60;57.90
35395;DHT22;21500;45.308;9.488;2023-01-10T15:35:42;15.60;58.10
35395;DHT22;21500;45.308;9.488;2023-01-10T15:38:24;15.80;57.70
35395;DHT22;21500;45.308;9.488;2023-01-10T15:41:28;15.70;57.30
35395;DHT22;21500;45.308;9.488;2023-01-10T15:44:36;15.70;57.40
35395;DHT22;21500;45.308;9.488;2023-01-10T15:47:02;15.70;57.70
35395;DHT22;21500;45.308;9.488;2023-01-10T15:49:29;15.50;57.60
35395;DHT22;21500;45.308;9.488;2023-01-10T15:51:55;15.30;56.70
35395;DHT22;21500;45.308;9.488;2023-01-10T15:57:03;14.80;57.70
35395;DHT22;21500;45.308;9.488;2023-01-10T15:59:46;14.40;58.20
35395;DHT22;21500;45.308;9.488;2023-01-10T16:02:28;14.10;59.40
35395;DHT22;21500;45.308;9.488;2023-01-10T16:04:57;13.90;59.90
35395;DHT22;21500;45.308;9.488;2023-01-10T16:07:28;13.60;60.40
35395;DHT22;21500;45.308;9.488;2023-01-10T16:10:06;13.40;61.20
35395;DHT22;21500;45.308;9.488;2023-01-10T16:12:40;13.30;61.10
35395;DHT22;21500;45.308;9.488;2023-01-10T16:15:29;13.10;61.00
35395;DHT22;21500;45.308;9.488;2023-01-10T16:17:55;12.90;61.40
35395;DHT22;21500;45.308;9.488;2023-01-10T16:20:42;12.80;61.30
35395;DHT22;21500;45.308;9.488;2023-01-10T16:23:29;12.60;61.70
35395;DHT22;21500;45.308;9.488;2023-01-10T16:25:58;12.50;61.60
35395;DHT22;21500;45.308;9.488;2023-01-10T16:28:24;12.40;61.20
35395;DHT22;21500;45.308;9.488;2023-01-10T16:30:55;12.30;60.80
35395;DHT22;21500;45.308;9.488;2023-01-10T16:33:23;12.40;60.50
35395;DHT22;21500;45.308;9.488;2023-01-10T16:35:55;12.30;60.50
35395;DHT22;21500;45.308;9.488;2023-01-10T16:38:25;12.20;60.00
35395;DHT22;21500;45.308;9.488;2023-01-10T16:41:00;12.10;60.00
35395;DHT22;21500;45.308;9.488;2023-01-10T16:43:53;12.00;60.00
35395;DHT22;21500;45.308;9.488;2023-01-10T16:46:23;12.00;59.70
35395;DHT22;21500;45.308;9.488;2023-01-10T16:48:58;11.90;60.30
35395;DHT22;21500;45.308;9.488;2023-01-10T16:51:28;11.90;59.30
35395;DHT22;21500;45.308;9.488;2023-01-10T16:53:58;11.80;60.60
35395;DHT22;21500;45.308;9.488;2023-01-10T16:56:28;11.50;64.10
35395;DHT22;21500;45.308;9.488;2023-01-10T16:59:58;11.20;66.30
